Time;durP1;ratioP1;P1;durP2;ratioP2;P2;SDS_P1;SDS_P2;PMS_P1;PMS_P2;Temp;Humidity;BMP_temperature;BMP_pressure;BME280_temperature;BME280_humidity;BME280_pressure;Samples;Min_cycle;Max_cycle;Signal;HPM_P1;HPM_P2
2023/10/15 00:00:18;;;;;;;3.07;1.70;;;18.30;95.70;;;;;;5097942;28;20231;-87
2023/10/15 00:02:46;;;;;;;3.40;1.70;;;18.30;95.70;;;;;;5086418;28;20166;-87
2023/10/15 00:05:18;;;;;;;2.13;1.60;;;18.30;95.70;;;;;;5099418;28;20170;-87
2023/10/15 00:07:44;;;;;;;2.57;1.60;;;18.30;95.70;;;;;;5098297;28;20163;-87
2023/10/15 00:10:15;;;;;;;3.00;1.50;;;18.30;95.70;;;;;;5097712;28;20289;-87
2023/10/15 00:12:43;;;;;;;2.83;1.70;;;18.30;95.70;;;;;;5095766;28;20167;-87
2023/10/15 00:15:28;;;;;;;3.93;1.73;;;18.30;95.70;;;;;;5096994;28;20464;-87
2023/10/15 00:18:09;;;;;;;4.30;1.87;;;18.30;95.70;;;;;;5096803;28;20189;-87
2023/10/15 00:20:38;;;;;;;2.67;1.80;;;18.30;95.70;;;;;;5098020;28;20237;-87
2023/10/15 00:23:04;;;;;;;2.00;1.70;;;18.30;95.70;;;;;;5097003;28;20178;-87
2023/10/15 00:25:35;;;;;;;3.00;1.60;;;18.20;95.70;;;;;;5097466;28;20173;-87
2023/10/15 00:28:05;;;;;;;2.40;1.80;;;18.30;95.70;;;;;;5096633;28;20270;-87
2023/10/15 00:30:32;;;;;;;2.97;1.70;;;18.20;95.70;;;;;;5097366;28;20226;-87
2023/10/15 00:33:06;;;;;;;2.63;1.53;;;18.20;95.70;;;;;;5096732;28;20178;-87
2023/10/15 00:35:33;;;;;;;3.83;1.80;;;18.20;95.70;;;;;;5114149;28;20254;-87
2023/10/15 00:38:19;;;;;;;3.37;1.60;;;18.20;95.70;;;;;;5097367;28;20280;-87
2023/10/15 00:40:46;;;;;;;3.00;1.90;;;18.20;95.70;;;;;;5096960;28;20209;-87
2023/10/15 00:43:17;;;;;;;2.60;1.60;;;18.20;95.70;;;;;;5094554;28;20437;-87
2023/10/15 00:45:45;;;;;;;3.60;1.97;;;18.20;95.70;;;;;;5096075;28;20251;-87
2023/10/15 00:48:24;;;;;;;2.53;1.67;;;18.10;95.70;;;;;;5113106;28;20166;-88
2023/10/15 00:50:51;;;;;;;2.73;1.70;;;18.20;95.70;;;;;;5076660;28;20186;-88
2023/10/15 00:53:24;;;;;;;2.53;1.60;;;18.20;95.70;;;;;;5093125;28;20189;-88
2023/10/15 00:56:04;;;;;;;2.77;1.60;;;18.10;95.70;;;;;;5076902;28;20439;-88
2023/10/15 01:03:49;;;;;;;2.97;1.90;;;18.10;95.60;;;;;;5111812;28;20571;-87
2023/10/15 01:06:18;;;;;;;2.47;1.50;;;18.10;95.70;;;;;;5096264;28;20218;-88
2023/10/15 01:08:46;;;;;;;2.53;1.50;;;18.10;95.70;;;;;;5097325;28;20180;-87
2023/10/15 01:11:20;;;;;;;2.63;1.83;;;18.10;95.70;;;;;;5113610;28;20170;-87
2023/10/15 01:13:46;;;;;;;1.50;1.40;;;18.10;95.70;;;;;;5096018;28;20201;-87
2023/10/15 01:16:17;;;;;;;3.03;1.50;;;18.00;95.70;;;;;;5099115;28;20178;-87
2023/10/15 01:18:55;;;;;;;2.40;1.60;;;18.00;95.60;;;;;;5095947;28;20251;-87
2023/10/15 01:21:21;;;;;;;3.23;1.90;;;18.00;95.60;;;;;;5095662;28;20166;-87
2023/10/15 01:24:04;;;;;;;2.80;1.70;;;18.00;95.70;;;;;;5114442;28;20193;-88
2023/10/15 01:26:36;;;;;;;2.27;1.50;;;18.00;95.70;;;;;;5099834;28;20177;-87
2023/10/15 01:29:06;;;;;;;2.50;1.63;;;18.00;95.60;;;;;;5096678;28;20243;-87
2023/10/15 01:31:40;;;;;;;2.00;1.40;;;18.00;95.60;;;;;;5102471;28;20158;-87
2023/10/15 01:34:09;;;;;;;3.57;1.70;;;18.00;95.60;;;;;;5099349;28;20587;-88
2023/10/15 01:36:38;;;;;;;2.27;1.40;;;18.00;95.60;;;;;;5114043;28;20219;-88
2023/10/15 01:42:04;;;;;;;1.90;1.43;;;17.90;95.60;;;;;;5022804;28;20469;-88
2023/10/15 01:44:30;;;;;;;3.50;1.77;;;18.00;95.60;;;;;;5087068;28;20173;-88
2023/10/15 01:49:31;;;;;;;1.57;1.40;;;17.90;95.60;;;;;;5112191;28;20260;-88
2023/10/15 01:52:10;;;;;;;2.13;1.60;;;17.90;95.60;;;;;;5112428;28;20236;-87
2023/10/15 01:54:36;;;;;;;2.60;1.50;;;17.90;95.60;;;;;;5095225;28;20181;-86
2023/10/15 01:57:09;;;;;;;2.20;1.60;;;17.90;95.60;;;;;;5094697;28;20178;-87
2023/10/15 01:59:47;;;;;;;2.20;1.40;;;17.90;95.60;;;;;;5095927;28;20212;-87
2023/10/15 02:02:15;;;;;;;1.93;1.40;;;17.90;95.60;;;;;;5096912;28;20178;-87
2023/10/15 02:04:44;;;;;;;1.67;1.37;;;17.90;95.60;;;;;;5113237;28;20186;-87
2023/10/15 02:07:19;;;;;;;2.27;1.60;;;17.90;95.60;;;;;;5113761;28;20436;-86
2023/10/15 02:09:45;;;;;;;1.77;1.50;;;17.90;95.60;;;;;;5113773;28;20260;-86
2023/10/15 02:12:19;;;;;;;2.63;1.60;;;17.90;95.60;;;;;;5096557;28;20301;-88
2023/10/15 02:14:48;;;;;;;2.07;1.50;;;17.80;95.50;;;;;;5095815;28;20181;-87
2023/10/15 02:17:18;;;;;;;2.90;1.63;;;17.80;95.50;;;;;;5084358;28;20341;-87
2023/10/15 02:19:44;;;;;;;1.80;1.37;;;17.80;95.60;;;;;;5095509;28;20261;-88
2023/10/15 02:22:12;;;;;;;1.70;1.43;;;17.80;95.60;;;;;;5094630;28;20182;-87
2023/10/15 02:24:38;;;;;;;1.73;1.50;;;17.80;95.60;;;;;;5112147;28;20167;-87
2023/10/15 02:27:08;;;;;;;2.03;1.30;;;17.80;95.50;;;;;;5094474;28;20170;-86
2023/10/15 02:29:35;;;;;;;2.80;1.57;;;17.80;95.50;;;;;;5111067;28;20326;-86
2023/10/15 02:35:05;;;;;;;2.57;1.67;;;17.80;95.50;;;;;;5098728;28;20197;-87
2023/10/15 02:37:31;;;;;;;2.07;1.30;;;17.80;95.50;;;;;;5112939;28;20614;-86
2023/10/15 02:39:58;;;;;;;1.60;1.30;;;17.80;95.50;;;;;;5113159;28;20228;-86
2023/10/15 02:42:30;;;;;;;1.50;1.17;;;17.80;95.50;;;;;;5111744;28;20173;-87
2023/10/15 02:45:00;;;;;;;3.57;1.97;;;17.80;95.50;;;;;;5095818;28;20178;-87
2023/10/15 02:47:31;;;;;;;2.13;1.40;;;17.80;95.50;;;;;;5096509;28;20170;-87
2023/10/15 02:50:02;;;;;;;1.83;1.40;;;17.80;95.50;;;;;;5097292;28;20238;-87
2023/10/15 02:52:35;;;;;;;2.90;1.50;;;17.80;95.50;;;;;;5112832;28;20177;-87
2023/10/15 02:55:11;;;;;;;2.00;1.30;;;17.80;95.50;;;;;;5096426;28;20182;-87
2023/10/15 02:57:41;;;;;;;1.53;1.20;;;17.80;95.50;;;;;;5113975;28;20230;-87
2023/10/15 03:00:32;;;;;;;1.97;1.30;;;17.70;95.40;;;;;;5096924;28;20485;-87
2023/10/15 03:03:06;;;;;;;2.93;1.87;;;17.70;95.40;;;;;;5096261;28;20170;-86
2023/10/15 03:05:38;;;;;;;1.60;1.20;;;17.70;95.40;;;;;;5117000;28;20179;-86
2023/10/15 03:08:05;;;;;;;2.10;1.43;;;17.70;95.40;;;;;;5100324;28;20615;-86
2023/10/15 03:10:44;;;;;;;1.30;1.20;;;17.70;95.40;;;;;;5101248;28;20551;-87
2023/10/15 03:13:14;;;;;;;1.40;1.20;;;17.70;95.40;;;;;;5100802;28;20176;-87
2023/10/15 03:15:48;;;;;;;1.57;1.27;;;17.70;95.40;;;;;;5118403;28;20231;-87
2023/10/15 03:18:15;;;;;;;1.67;1.40;;;17.70;95.40;;;;;;5099788;28;20172;-89
2023/10/15 03:20:49;;;;;;;2.23;1.27;;;17.70;95.40;;;;;;5100553;28;20591;-86
2023/10/15 03:23:17;;;;;;;1.30;1.20;;;17.70;95.40;;;;;;5108688;28;20165;-86
2023/10/15 03:25:42;;;;;;;2.13;1.43;;;17.70;95.40;;;;;;5098043;28;20267;-86
2023/10/15 03:28:11;;;;;;;2.90;1.63;;;17.70;95.70;;;;;;5098591;28;20260;-86
2023/10/15 03:30:44;;;;;;;4.13;1.63;;;17.70;95.40;;;;;;5100704;28;20170;-86
2023/10/15 03:33:13;;;;;;;1.47;1.17;;;17.70;95.40;;;;;;5112436;28;20185;-86
2023/10/15 03:35:43;;;;;;;1.30;1.20;;;17.70;95.40;;;;;;5117985;28;20184;-86
2023/10/15 03:38:15;;;;;;;1.40;1.10;;;17.70;95.40;;;;;;5099483;28;20170;-86
2023/10/15 03:40:49;;;;;;;2.17;1.40;;;17.70;95.40;;;;;;5117519;28;20213;-86
2023/10/15 03:43:20;;;;;;;1.63;1.30;;;17.60;95.30;;;;;;5117050;28;20191;-86
2023/10/15 03:45:52;;;;;;;2.30;1.37;;;17.60;95.30;;;;;;5099546;28;20180;-86
2023/10/15 03:48:21;;;;;;;1.60;1.17;;;17.70;95.40;;;;;;5099724;28;20169;-86
2023/10/15 03:50:54;;;;;;;1.93;1.37;;;17.60;95.30;;;;;;5118062;28;20174;-86
2023/10/15 03:53:21;;;;;;;2.57;1.70;;;17.60;95.30;;;;;;5099724;28;20174;-86
2023/10/15 03:55:51;;;;;;;1.87;1.40;;;17.60;95.30;;;;;;5099813;28;20224;-86
2023/10/15 03:58:18;;;;;;;1.77;1.20;;;17.60;95.30;;;;;;5117142;28;20201;-86
2023/10/15 04:00:47;;;;;;;1.50;1.20;;;17.60;95.30;;;;;;5116205;28;20579;-86
2023/10/15 04:03:25;;;;;;;2.67;1.50;;;17.60;95.30;;;;;;5116649;28;20162;-86
2023/10/15 04:05:53;;;;;;;1.83;1.20;;;17.60;95.30;;;;;;5093399;28;20170;-86
2023/10/15 04:08:19;;;;;;;1.50;1.10;;;17.60;95.30;;;;;;5097598;28;20460;-86
2023/10/15 04:10:56;;;;;;;1.67;1.33;;;17.60;95.30;;;;;;5103802;28;20470;-88
2023/10/15 04:13:22;;;;;;;2.13;1.30;;;17.60;95.30;;;;;;5098327;28;20170;-87
2023/10/15 04:15:51;;;;;;;1.87;1.60;;;17.60;95.40;;;;;;5114667;28;20623;-87
2023/10/15 04:18:19;;;;;;;1.47;1.17;;;17.60;95.30;;;;;;5115446;28;20182;-87
2023/10/15 04:20:45;;;;;;;1.50;1.30;;;17.60;95.30;;;;;;5103049;28;20198;-88
2023/10/15 04:23:12;;;;;;;1.30;1.10;;;17.60;95.30;;;;;;5117743;28;20431;-87
2023/10/15 04:25:38;;;;;;;2.03;1.30;;;17.60;95.40;;;;;;5105908;28;20217;-87
2023/10/15 04:28:08;;;;;;;2.10;1.33;;;17.60;95.40;;;;;;5117076;28;20560;-87
2023/10/15 04:30:41;;;;;;;1.47;1.27;;;17.50;95.30;;;;;;5106945;28;20174;-87
2023/10/15 04:33:10;;;;;;;1.37;1.20;;;17.50;95.30;;;;;;5096567;28;20554;-87
2023/10/15 04:35:37;;;;;;;1.50;1.20;;;17.50;95.30;;;;;;5098451;28;20185;-87
2023/10/15 04:38:07;;;;;;;2.03;1.40;;;17.60;95.40;;;;;;5117693;28;20170;-88
2023/10/15 04:40:47;;;;;;;2.00;1.23;;;17.60;95.30;;;;;;5117468;28;20349;-88
2023/10/15 04:43:13;;;;;;;2.00;1.30;;;17.50;95.30;;;;;;5097884;28;20212;-88
2023/10/15 04:45:44;;;;;;;2.20;1.40;;;17.50;95.40;;;;;;5097660;28;20414;-88
2023/10/15 04:48:14;;;;;;;1.70;1.20;;;17.60;95.30;;;;;;5113850;28;20277;-88
2023/10/15 04:50:43;;;;;;;2.60;1.10;;;17.50;95.30;;;;;;5097360;28;20184;-87
2023/10/15 04:53:13;;;;;;;2.80;1.30;;;17.50;95.40;;;;;;5095666;28;20670;-87
2023/10/15 04:55:40;;;;;;;1.33;1.10;;;17.50;95.40;;;;;;5097137;28;20181;-87
2023/10/15 04:58:06;;;;;;;1.80;1.40;;;17.50;95.40;;;;;;5097675;28;20273;-87
2023/10/15 05:00:33;;;;;;;1.33;1.20;;;17.50;95.40;;;;;;5112838;28;20299;-87
2023/10/15 05:02:59;;;;;;;1.57;1.30;;;17.50;95.40;;;;;;5113947;28;20236;-87
2023/10/15 05:05:24;;;;;;;3.13;1.37;;;17.50;95.40;;;;;;5097437;28;20476;-88
2023/10/15 05:07:50;;;;;;;1.70;1.30;;;17.50;95.40;;;;;;5102110;28;20560;-88
2023/10/15 05:10:16;;;;;;;1.27;1.17;;;17.50;95.40;;;;;;5115400;28;20448;-88
2023/10/15 05:12:42;;;;;;;1.70;1.20;;;17.50;95.40;;;;;;5102269;28;20166;-88
2023/10/15 05:15:13;;;;;;;1.40;1.30;;;17.50;95.40;;;;;;5114346;28;20186;-88
2023/10/15 05:17:39;;;;;;;1.53;1.23;;;17.50;95.40;;;;;;5106702;28;20166;-88
2023/10/15 05:20:11;;;;;;;1.27;1.10;;;17.50;95.40;;;;;;5098866;28;20204;-88
2023/10/15 05:22:38;;;;;;;1.87;1.37;;;17.40;95.40;;;;;;5116280;28;20170;-88
2023/10/15 05:25:04;;;;;;;1.40;1.17;;;17.50;95.40;;;;;;5113573;28;20265;-88
2023/10/15 05:27:32;;;;;;;1.40;1.20;;;17.40;95.40;;;;;;5094548;28;20177;-89
2023/10/15 05:29:58;;;;;;;1.30;1.00;;;17.40;95.40;;;;;;5075190;28;20175;-86
2023/10/15 05:32:24;;;;;;;1.50;1.30;;;17.40;95.40;;;;;;5088829;28;20209;-87
2023/10/15 05:34:51;;;;;;;1.53;1.17;;;17.40;95.40;;;;;;5111033;28;20459;-86
2023/10/15 05:37:17;;;;;;;1.97;1.40;;;17.40;95.40;;;;;;5093347;28;20604;-87
2023/10/15 05:39:42;;;;;;;1.67;1.17;;;17.40;95.50;;;;;;5098769;28;20238;-87
2023/10/15 05:42:08;;;;;;;1.73;1.10;;;17.40;95.50;;;;;;5095482;28;20173;-87
2023/10/15 05:44:35;;;;;;;1.47;1.17;;;17.40;95.50;;;;;;5095859;28;20443;-87
2023/10/15 05:47:01;;;;;;;1.73;1.23;;;17.40;95.50;;;;;;5110709;28;20168;-87
2023/10/15 05:49:26;;;;;;;2.67;1.30;;;17.40;95.50;;;;;;5112134;28;20457;-87
2023/10/15 05:51:52;;;;;;;1.57;1.30;;;17.40;95.50;;;;;;5112193;28;20326;-87
2023/10/15 05:54:19;;;;;;;1.20;1.10;;;17.40;95.50;;;;;;5111505;28;20166;-86
2023/10/15 05:56:45;;;;;;;1.43;1.20;;;17.40;95.50;;;;;;5114653;28;20596;-86
2023/10/15 05:59:11;;;;;;;1.83;1.23;;;17.40;95.50;;;;;;5113138;28;20193;-86
2023/10/15 06:01:36;;;;;;;1.40;1.20;;;17.40;95.50;;;;;;5113910;28;20184;-87
2023/10/15 06:04:03;;;;;;;1.27;1.10;;;17.40;95.50;;;;;;5114404;28;20266;-87
2023/10/15 06:06:29;;;;;;;1.73;1.20;;;17.40;95.60;;;;;;5115001;28;20170;-87
2023/10/15 06:08:56;;;;;;;1.57;1.10;;;17.30;95.50;;;;;;5097024;28;20166;-87
2023/10/15 06:11:22;;;;;;;1.97;1.20;;;17.40;95.50;;;;;;5114584;28;20273;-87
2023/10/15 06:13:47;;;;;;;1.60;1.10;;;17.30;95.50;;;;;;5097079;28;20326;-87
2023/10/15 06:16:14;;;;;;;1.20;1.10;;;17.30;95.50;;;;;;5096814;28;20217;-87
2023/10/15 06:18:41;;;;;;;1.20;0.93;;;17.30;95.50;;;;;;5113274;28;20234;-87
2023/10/15 06:21:07;;;;;;;1.10;1.00;;;17.30;95.50;;;;;;5094992;28;20300;-87
2023/10/15 06:23:32;;;;;;;1.27;1.10;;;17.30;95.50;;;;;;5113503;28;20555;-87
2023/10/15 06:25:59;;;;;;;1.37;1.00;;;17.30;95.60;;;;;;5103034;28;20177;-88
2023/10/15 06:28:25;;;;;;;1.50;1.10;;;17.30;95.50;;;;;;5113874;28;20415;-87
2023/10/15 06:30:51;;;;;;;1.30;1.20;;;17.30;95.50;;;;;;5112702;28;20187;-89
2023/10/15 06:33:18;;;;;;;1.30;1.10;;;17.30;95.50;;;;;;5078564;28;20621;-86
2023/10/15 06:35:44;;;;;;;1.10;1.00;;;17.30;95.50;;;;;;5111867;28;20203;-87
2023/10/15 06:38:09;;;;;;;1.07;0.97;;;17.30;95.50;;;;;;5113489;28;20173;-86
2023/10/15 06:40:38;;;;;;;1.20;1.10;;;17.30;95.50;;;;;;5117583;28;20440;-86
2023/10/15 06:43:04;;;;;;;1.37;1.10;;;17.30;95.50;;;;;;5101485;28;20365;-86
2023/10/15 06:45:33;;;;;;;1.50;1.20;;;17.30;95.60;;;;;;5100153;28;20201;-86
2023/10/15 06:48:00;;;;;;;1.90;1.07;;;17.30;95.60;;;;;;5101466;28;20173;-86
2023/10/15 06:50:25;;;;;;;1.00;0.90;;;17.30;95.60;;;;;;5106287;28;20548;-86
2023/10/15 06:52:52;;;;;;;1.47;1.10;;;17.30;95.60;;;;;;5117682;28;20603;-87
2023/10/15 06:55:20;;;;;;;1.20;1.10;;;17.30;95.60;;;;;;5118301;28;20162;-87
2023/10/15 06:57:46;;;;;;;1.40;1.00;;;17.30;95.60;;;;;;5099857;28;20268;-87
2023/10/15 07:00:12;;;;;;;1.17;1.03;;;17.20;95.60;;;;;;5098632;28;20211;-87
2023/10/15 07:02:38;;;;;;;1.00;0.90;;;17.20;95.60;;;;;;5099332;28;20173;-87
2023/10/15 07:05:05;;;;;;;1.33;0.90;;;17.20;95.60;;;;;;5113035;28;20170;-87
2023/10/15 07:07:33;;;;;;;2.10;1.20;;;17.20;95.60;;;;;;5098546;28;20450;-87
2023/10/15 07:10:06;;;;;;;1.27;0.97;;;17.30;95.60;;;;;;5097635;28;20273;-87
2023/10/15 07:12:32;;;;;;;1.20;1.00;;;17.20;95.60;;;;;;5095784;28;20475;-87
2023/10/15 07:14:59;;;;;;;1.10;1.00;;;17.20;95.60;;;;;;5097932;28;20224;-87
2023/10/15 07:17:25;;;;;;;1.60;1.20;;;17.20;95.60;;;;;;5114884;28;20488;-87
2023/10/15 07:19:51;;;;;;;1.20;1.10;;;17.30;95.60;;;;;;5098637;28;20213;-87
2023/10/15 07:22:16;;;;;;;1.57;1.10;;;17.30;95.60;;;;;;5114428;28;20239;-87
2023/10/15 07:24:42;;;;;;;1.00;0.90;;;17.30;95.60;;;;;;5098653;28;20559;-87
2023/10/15 07:27:09;;;;;;;1.30;1.03;;;17.30;95.60;;;;;;5103873;28;20173;-87
2023/10/15 07:29:34;;;;;;;1.33;1.00;;;17.30;95.60;;;;;;5114243;28;20180;-87
2023/10/15 07:32:00;;;;;;;1.40;1.20;;;17.20;95.60;;;;;;5101103;28;20235;-87
2023/10/15 07:34:28;;;;;;;1.10;1.00;;;17.30;95.60;;;;;;5094942;28;20267;-87
2023/10/15 07:36:56;;;;;;;1.20;0.93;;;17.30;95.60;;;;;;5095574;28;20265;-87
2023/10/15 07:39:23;;;;;;;1.20;1.10;;;17.30;95.60;;;;;;5110707;28;20174;-87
2023/10/15 07:41:49;;;;;;;1.10;1.00;;;17.30;95.60;;;;;;5093340;28;20184;-87
2023/10/15 07:44:15;;;;;;;1.00;0.90;;;17.30;95.60;;;;;;5110607;28;20166;-87
2023/10/15 07:46:42;;;;;;;0.90;0.90;;;17.30;95.60;;;;;;5108837;28;20274;-87
2023/10/15 07:49:16;;;;;;;0.80;0.80;;;17.20;95.60;;;;;;5098515;28;20186;-87
2023/10/15 07:51:41;;;;;;;1.43;1.00;;;17.30;95.60;;;;;;5096031;28;20397;-87
2023/10/15 07:54:07;;;;;;;0.90;0.90;;;17.30;95.60;;;;;;5100894;28;20443;-87
2023/10/15 07:56:34;;;;;;;1.20;1.10;;;17.30;95.60;;;;;;5112862;28;20185;-87
2023/10/15 07:59:04;;;;;;;1.53;1.20;;;17.30;95.60;;;;;;5112832;28;20185;-87
2023/10/15 08:01:31;;;;;;;2.50;1.60;;;17.40;95.60;;;;;;5111908;28;20192;-87
2023/10/15 08:03:59;;;;;;;5.07;2.00;;;17.40;95.60;;;;;;5094244;28;20169;-87
2023/10/15 08:06:25;;;;;;;5.37;2.00;;;17.40;95.50;;;;;;5112043;28;20170;-87
2023/10/15 08:08:51;;;;;;;3.53;2.20;;;17.50;95.60;;;;;;5093929;28;20269;-87
2023/10/15 08:11:17;;;;;;;2.90;2.27;;;17.50;95.50;;;;;;5093531;28;20193;-87
2023/10/15 08:13:43;;;;;;;3.83;2.90;;;17.50;95.50;;;;;;5097909;28;20212;-88
2023/10/15 08:16:08;;;;;;;5.37;3.33;;;17.50;95.50;;;;;;5095154;28;20205;-87
2023/10/15 08:18:34;;;;;;;5.03;3.60;;;17.50;95.50;;;;;;5095011;28;20174;-87
2023/10/15 08:20:59;;;;;;;5.13;3.10;;;17.50;95.70;;;;;;5111971;28;20258;-87
2023/10/15 08:23:27;;;;;;;4.30;3.37;;;17.50;95.30;;;;;;5111716;28;20180;-87
2023/10/15 08:25:53;;;;;;;6.20;3.60;;;17.50;95.30;;;;;;5111768;28;20162;-87
2023/10/15 08:28:19;;;;;;;4.77;3.37;;;17.50;95.30;;;;;;5095261;28;20170;-87
2023/10/15 08:30:45;;;;;;;5.00;3.23;;;17.50;95.30;;;;;;5095380;28;20173;-87
2023/10/15 08:33:12;;;;;;;5.50;3.43;;;17.50;95.40;;;;;;5111208;28;20170;-87
2023/10/15 08:35:38;;;;;;;5.00;3.40;;;17.50;95.40;;;;;;5092530;28;20170;-87
2023/10/15 08:38:07;;;;;;;5.27;3.00;;;17.50;95.40;;;;;;5094429;28;20265;-87
2023/10/15 08:40:40;;;;;;;6.37;3.10;;;17.50;95.30;;;;;;5099658;28;20201;-87
2023/10/15 08:43:13;;;;;;;4.50;2.70;;;17.50;95.30;;;;;;5093938;28;20181;-87
2023/10/15 08:45:42;;;;;;;5.40;3.33;;;17.40;95.30;;;;;;5093934;28;20162;-87
2023/10/15 08:48:10;;;;;;;6.63;3.03;;;17.50;95.30;;;;;;5092414;28;20424;-87
2023/10/15 08:50:37;;;;;;;6.60;2.87;;;17.40;95.20;;;;;;5091383;28;20170;-87
2023/10/15 08:53:04;;;;;;;5.77;3.00;;;17.40;95.20;;;;;;5093152;28;20166;-87
2023/10/15 08:55:33;;;;;;;9.17;2.93;;;17.40;95.20;;;;;;5092327;28;20170;-87
2023/10/15 08:58:00;;;;;;;7.30;3.10;;;17.40;95.20;;;;;;5090094;28;20170;-87
2023/10/15 09:00:26;;;;;;;4.53;2.87;;;17.40;95.20;;;;;;5090971;28;20198;-87
2023/10/15 09:02:53;;;;;;;4.47;2.77;;;17.40;95.20;;;;;;5104384;28;20437;-87
2023/10/15 09:05:19;;;;;;;3.77;3.03;;;17.40;95.20;;;;;;5090080;28;20170;-87
2023/10/15 09:07:47;;;;;;;5.30;2.90;;;17.40;95.20;;;;;;5115545;28;20183;-87
2023/10/15 09:10:15;;;;;;;4.60;2.67;;;17.50;95.10;;;;;;5089738;28;20273;-87
2023/10/15 09:12:40;;;;;;;5.10;2.70;;;17.50;95.10;;;;;;5091047;28;20166;-87
2023/10/15 09:15:16;;;;;;;5.57;2.67;;;17.40;95.10;;;;;;5096483;28;20384;-87
2023/10/15 09:17:57;;;;;;;5.27;2.60;;;17.40;95.10;;;;;;5110272;28;20162;-87
2023/10/15 09:20:27;;;;;;;4.97;2.57;;;17.40;95.10;;;;;;5089611;28;20205;-87
2023/10/15 09:22:57;;;;;;;4.13;2.40;;;17.40;95.00;;;;;;5091162;28;20509;-86
2023/10/15 09:25:28;;;;;;;4.47;2.40;;;17.40;95.00;;;;;;5090647;28;20251;-87
2023/10/15 09:27:54;;;;;;;4.97;2.70;;;17.40;95.00;;;;;;5088682;28;20259;-87
2023/10/15 09:30:24;;;;;;;8.77;2.40;;;17.40;95.00;;;;;;5085246;28;20185;-87
2023/10/15 09:32:50;;;;;;;5.63;2.37;;;17.50;95.00;;;;;;5090858;28;20181;-87
2023/10/15 09:35:17;;;;;;;5.23;2.50;;;17.50;95.50;;;;;;5091421;28;20436;-87
2023/10/15 09:37:44;;;;;;;8.43;2.23;;;17.50;95.40;;;;;;5110312;28;20320;-87
2023/10/15 09:40:20;;;;;;;8.77;2.43;;;17.50;95.40;;;;;;5103546;28;20190;-87
2023/10/15 09:42:53;;;;;;;6.73;2.57;;;17.50;95.40;;;;;;5091232;28;20284;-87
2023/10/15 09:45:23;;;;;;;6.10;2.20;;;17.50;95.30;;;;;;5090663;28;20604;-87
2023/10/15 09:47:59;;;;;;;4.57;2.10;;;17.50;95.30;;;;;;5089201;28;20288;-86
2023/10/15 09:50:38;;;;;;;5.20;2.10;;;17.40;95.30;;;;;;5108166;28;20455;-87
2023/10/15 09:53:11;;;;;;;6.93;2.00;;;17.40;95.30;;;;;;5090089;28;20182;-87
2023/10/15 09:55:40;;;;;;;5.93;2.07;;;17.40;95.30;;;;;;5092559;28;20173;-87
2023/10/15 09:58:06;;;;;;;5.93;2.37;;;17.40;95.30;;;;;;5090192;28;20228;-87
2023/10/15 10:03:47;;;;;;;5.03;2.07;;;17.40;95.30;;;;;;5095267;28;20186;-87
2023/10/15 10:06:49;;;;;;;3.77;2.03;;;17.40;95.40;;;;;;5088368;28;20170;-86
2023/10/15 10:09:51;;;;;;;8.87;2.57;;;17.50;95.60;;;;;;5064888;28;20450;-86
2023/10/15 10:12:35;;;;;;;5.87;2.00;;;17.50;95.70;;;;;;5087861;28;20720;-86
2023/10/15 10:15:32;;;;;;;5.03;2.10;;;17.50;95.90;;;;;;5087729;28;20546;-86
2023/10/15 10:17:59;;;;;;;7.23;2.03;;;17.50;95.90;;;;;;5075418;28;20166;-86
2023/10/15 10:20:32;;;;;;;7.00;2.07;;;17.50;95.80;;;;;;5087282;28;20277;-87
2023/10/15 10:23:03;;;;;;;5.93;1.90;;;17.50;95.80;;;;;;5086673;28;20265;-86
2023/10/15 10:25:42;;;;;;;9.13;2.10;;;17.50;95.80;;;;;;5089527;28;20170;-87
2023/10/15 10:28:15;;;;;;;10.23;2.13;;;17.50;95.80;;;;;;5086272;28;20201;-87
2023/10/15 10:30:54;;;;;;;5.73;1.93;;;17.50;95.80;;;;;;5090069;28;20473;-87
2023/10/15 10:33:45;;;;;;;5.67;1.90;;;17.50;95.70;;;;;;5089162;28;20169;-86
2023/10/15 10:36:12;;;;;;;5.07;2.00;;;17.50;95.70;;;;;;5089166;28;20177;-86
2023/10/15 10:38:41;;;;;;;7.00;2.00;;;17.50;95.70;;;;;;5108298;28;20205;-87
2023/10/15 10:41:14;;;;;;;5.20;1.70;;;17.50;95.70;;;;;;5107073;28;20229;-86
2023/10/15 10:43:42;;;;;;;3.13;1.80;;;17.50;95.70;;;;;;5086854;28;20178;-87
2023/10/15 10:46:19;;;;;;;5.47;1.80;;;17.50;95.60;;;;;;5105850;28;20311;-86
2023/10/15 10:49:01;;;;;;;4.30;1.80;;;17.60;95.60;;;;;;5090023;28;20165;-86
2023/10/15 10:51:30;;;;;;;2.93;1.70;;;17.50;95.50;;;;;;5089104;28;20398;-86
2023/10/15 10:53:56;;;;;;;3.73;1.43;;;17.50;95.50;;;;;;5108161;28;20178;-86
2023/10/15 10:56:23;;;;;;;3.60;1.60;;;17.50;95.50;;;;;;5086964;28;20456;-86
2023/10/15 10:58:54;;;;;;;4.40;1.60;;;17.50;95.50;;;;;;5086343;28;20395;-86
2023/10/15 11:01:21;;;;;;;2.80;1.60;;;17.50;95.50;;;;;;5105075;28;20517;-86
2023/10/15 11:03:48;;;;;;;3.40;1.60;;;17.60;95.40;;;;;;5105591;28;20427;-86
2023/10/15 11:06:15;;;;;;;2.63;1.57;;;17.60;95.30;;;;;;5106256;28;20550;-86
2023/10/15 11:08:46;;;;;;;3.87;1.63;;;17.60;95.30;;;;;;5089328;28;20227;-86
2023/10/15 11:11:12;;;;;;;3.53;1.70;;;17.60;95.30;;;;;;5086621;28;20261;-86
2023/10/15 11:13:38;;;;;;;3.53;1.83;;;17.60;95.20;;;;;;5105999;28;20277;-86
2023/10/15 11:16:03;;;;;;;3.83;1.50;;;17.60;95.30;;;;;;5087760;28;20180;-86
2023/10/15 11:18:30;;;;;;;3.03;1.50;;;17.60;95.20;;;;;;5107761;28;20269;-86
2023/10/15 11:20:56;;;;;;;4.77;1.70;;;17.60;95.20;;;;;;5105590;28;20237;-86
2023/10/15 11:23:26;;;;;;;4.43;1.90;;;17.60;95.20;;;;;;5105432;28;20527;-86
2023/10/15 11:25:56;;;;;;;1.97;1.50;;;17.60;95.10;;;;;;5096835;28;20201;-86
2023/10/15 11:28:24;;;;;;;6.00;1.60;;;17.60;95.10;;;;;;5091048;28;20177;-86
2023/10/15 11:30:50;;;;;;;2.23;1.57;;;17.60;95.40;;;;;;5091142;28;20651;-86
2023/10/15 11:33:17;;;;;;;4.27;1.60;;;17.60;95.00;;;;;;5091466;28;20181;-86
2023/10/15 11:35:48;;;;;;;2.27;1.40;;;17.60;95.00;;;;;;5095699;28;20232;-86
2023/10/15 11:38:14;;;;;;;2.77;1.50;;;17.60;95.10;;;;;;5108192;28;20511;-86
2023/10/15 11:40:41;;;;;;;3.00;1.70;;;17.60;95.10;;;;;;5090567;28;20198;-87
2023/10/15 11:43:18;;;;;;;2.83;1.70;;;17.60;95.20;;;;;;5091832;28;20165;-87
2023/10/15 11:45:47;;;;;;;8.13;1.67;;;17.60;95.20;;;;;;5106525;28;20193;-87
2023/10/15 11:48:14;;;;;;;4.53;1.60;;;17.60;95.20;;;;;;5092334;28;20493;-86
2023/10/15 11:50:44;;;;;;;5.90;1.73;;;17.60;95.50;;;;;;5093552;28;20300;-86
2023/10/15 11:53:19;;;;;;;4.63;1.77;;;17.60;95.30;;;;;;5093391;28;20174;-86
2023/10/15 11:55:52;;;;;;;4.27;1.70;;;17.60;95.30;;;;;;5094715;28;20282;-86
2023/10/15 11:58:27;;;;;;;5.10;1.70;;;17.60;95.40;;;;;;5094895;28;20272;-87
2023/10/15 12:00:53;;;;;;;6.43;1.93;;;17.60;95.40;;;;;;5093314;28;20197;-86
2023/10/15 12:03:23;;;;;;;4.73;2.03;;;17.60;95.40;;;;;;5109353;28;20175;-86
2023/10/15 12:05:51;;;;;;;5.97;1.73;;;17.60;95.40;;;;;;5109443;28;20193;-86
2023/10/15 12:08:24;;;;;;;3.90;1.87;;;17.60;95.40;;;;;;5110359;28;20171;-86
2023/10/15 12:10:51;;;;;;;4.17;2.03;;;17.70;95.40;;;;;;5110068;28;20166;-86
2023/10/15 12:13:17;;;;;;;4.03;1.90;;;17.70;95.70;;;;;;5095283;28;20201;-86
2023/10/15 12:15:43;;;;;;;4.77;1.77;;;17.70;95.50;;;;;;5104049;28;20170;-86
2023/10/15 12:18:09;;;;;;;3.93;1.77;;;17.70;95.50;;;;;;5107507;28;20189;-86
2023/10/15 12:20:34;;;;;;;5.77;2.00;;;17.70;95.40;;;;;;5093077;28;20555;-86
2023/10/15 12:23:00;;;;;;;5.07;1.83;;;17.70;95.40;;;;;;5109393;28;20181;-86
2023/10/15 12:25:27;;;;;;;3.63;1.97;;;17.60;95.40;;;;;;5087321;28;20201;-86
2023/10/15 12:27:52;;;;;;;3.17;1.90;;;17.60;95.40;;;;;;5099212;28;20175;-86
2023/10/15 12:30:27;;;;;;;2.60;1.60;;;17.60;95.40;;;;;;5108965;28;20181;-86
2023/10/15 12:33:02;;;;;;;3.87;1.70;;;17.60;95.30;;;;;;5092529;28;20180;-86
2023/10/15 12:35:28;;;;;;;3.20;1.93;;;17.60;95.30;;;;;;5088662;28;20178;-86
2023/10/15 12:38:05;;;;;;;2.97;1.70;;;17.60;95.30;;;;;;5099548;28;20185;-86
2023/10/15 12:40:32;;;;;;;4.83;1.90;;;17.60;95.30;;;;;;5089183;28;20206;-86
2023/10/15 12:43:11;;;;;;;3.07;1.67;;;17.60;95.30;;;;;;5091144;28;20177;-86
2023/10/15 12:45:37;;;;;;;3.77;1.70;;;17.70;95.30;;;;;;5090826;28;20433;-86
2023/10/15 12:48:05;;;;;;;2.97;1.60;;;17.70;95.40;;;;;;5092028;28;20269;-86
2023/10/15 12:50:31;;;;;;;2.33;1.53;;;17.60;95.30;;;;;;5096855;28;20170;-86
2023/10/15 12:52:58;;;;;;;2.30;1.60;;;17.70;95.30;;;;;;5097947;28;20179;-87
2023/10/15 12:55:24;;;;;;;6.03;1.63;;;17.70;95.30;;;;;;5093395;28;20178;-87
2023/10/15 12:57:53;;;;;;;6.07;1.90;;;17.70;95.30;;;;;;5091995;28;20178;-86
2023/10/15 13:00:22;;;;;;;2.53;1.60;;;17.70;95.30;;;;;;5108245;28;20631;-86
2023/10/15 13:02:49;;;;;;;4.77;1.80;;;17.70;95.20;;;;;;5091425;28;20175;-86
2023/10/15 13:05:22;;;;;;;3.33;1.77;;;17.70;95.20;;;;;;5109445;28;20166;-86
2023/10/15 13:07:49;;;;;;;3.20;1.60;;;17.70;95.20;;;;;;5093207;28;20434;-87
2023/10/15 13:10:17;;;;;;;4.43;1.97;;;17.70;95.10;;;;;;5090621;28;20175;-86
2023/10/15 13:12:54;;;;;;;3.47;1.90;;;17.70;95.10;;;;;;5086716;28;20547;-86
2023/10/15 13:15:21;;;;;;;4.30;1.73;;;17.70;95.00;;;;;;5108193;28;20628;-86